createdAt,value
2023-01-01T00:00:21.860Z,24.25
2023-01-01T00:02:49.335Z,6.10
2023-01-01T00:05:16.811Z,8.02
2023-01-01T00:07:44.142Z,10.52
2023-01-01T00:10:30.305Z,38.88
2023-01-01T00:12:58.150Z,8.57
2023-01-01T00:15:25.922Z,5.47
2023-01-01T00:17:54.281Z,5.65
2023-01-01T00:20:21.772Z,4.88
2023-01-01T00:22:56.821Z,8.40
2023-01-01T00:25:24.704Z,6.72
2023-01-01T00:27:52.631Z,7.82
2023-01-01T00:30:20.552Z,18.15
2023-01-01T00:32:54.588Z,15.02
2023-01-01T00:35:23.996Z,9.07
2023-01-01T00:37:51.782Z,21.83
2023-01-01T00:40:19.205Z,10.75
2023-01-01T00:42:46.534Z,14.48
2023-01-01T00:45:20.498Z,24.65
2023-01-01T00:50:16.545Z,5.70
2023-01-01T00:52:44.343Z,14.93
2023-01-01T00:55:12.400Z,10.18
2023-01-01T00:57:39.967Z,10.05
2023-01-01T01:00:08.356Z,15.25
2023-01-01T01:02:36.088Z,14.18
2023-01-01T01:05:04.990Z,16.45
2023-01-01T01:07:36.690Z,4.00
2023-01-01T01:10:12.634Z,5.00
2023-01-01T01:12:40.250Z,5.88
2023-01-01T01:15:08.209Z,5.07
2023-01-01T01:17:35.769Z,4.75
2023-01-01T01:20:03.593Z,5.20
2023-01-01T01:22:31.004Z,5.68
2023-01-01T01:24:58.598Z,6.85
2023-01-01T01:27:25.954Z,5.05
2023-01-01T01:29:53.446Z,3.20
2023-01-01T01:32:22.208Z,2.90
2023-01-01T01:34:49.795Z,3.20
2023-01-01T01:37:17.141Z,3.30
2023-01-01T01:39:47.841Z,3.35
2023-01-01T01:42:18.622Z,2.65
2023-01-01T01:45:07.991Z,3.08
2023-01-01T01:47:50.750Z,3.50
2023-01-01T01:50:44.416Z,2.92
2023-01-01T01:53:25.640Z,2.92
2023-01-01T01:55:54.897Z,3.33
2023-01-01T01:58:22.817Z,2.65
2023-01-01T02:00:50.155Z,2.65
2023-01-01T02:03:20.083Z,3.50
2023-01-01T02:05:47.789Z,3.08
2023-01-01T02:08:18.697Z,2.58
2023-01-01T02:10:46.097Z,3.03
2023-01-01T02:13:14.243Z,2.85
2023-01-01T02:16:03.251Z,2.70
2023-01-01T02:18:50.923Z,2.60
2023-01-01T02:21:25.003Z,2.30
2023-01-01T02:23:52.555Z,2.63
2023-01-01T02:26:53.712Z,2.75
2023-01-01T02:29:29.389Z,2.83
2023-01-01T02:34:26.259Z,3.45
2023-01-01T02:36:55.599Z,2.38
2023-01-01T02:39:24.443Z,2.80
2023-01-01T02:41:54.502Z,2.47
2023-01-01T02:44:23.588Z,2.35
2023-01-01T02:46:51.161Z,2.72
2023-01-01T02:49:18.726Z,2.72
2023-01-01T02:52:24.750Z,2.80
2023-01-01T02:54:58.753Z,2.67
2023-01-01T02:57:32.483Z,2.35
2023-01-01T03:00:18.328Z,2.83
2023-01-01T03:02:50.672Z,2.95
2023-01-01T03:05:21.935Z,2.72
2023-01-01T03:08:03.791Z,2.67
2023-01-01T03:10:49.618Z,2.50
2023-01-01T03:13:32.523Z,2.60
2023-01-01T03:16:01.553Z,3.15
2023-01-01T03:18:33.593Z,2.80
2023-01-01T03:21:02.087Z,3.00
2023-01-01T03:23:32.910Z,2.80
2023-01-01T03:26:02.116Z,2.22
2023-01-01T03:28:31.848Z,2.53
2023-01-01T03:30:59.835Z,2.60
2023-01-01T03:33:35.774Z,3.03
2023-01-01T03:36:06.307Z,2.75
2023-01-01T03:38:39.157Z,2.67
2023-01-01T03:41:11.052Z,3.00
2023-01-01T03:43:49.625Z,2.58
2023-01-01T03:46:18.732Z,3.17
2023-01-01T03:49:03.847Z,3.80
2023-01-01T03:51:58.202Z,3.35
2023-01-01T03:54:25.571Z,2.88
2023-01-01T03:57:16.256Z,2.85
2023-01-01T03:59:48.441Z,3.30
2023-01-01T04:02:18.096Z,3.00
2023-01-01T04:04:45.978Z,2.97
2023-01-01T04:07:15.953Z,2.88
2023-01-01T04:09:48.046Z,2.92
2023-01-01T04:12:16.723Z,3.65
2023-01-01T04:14:44.626Z,3.47
2023-01-01T04:17:13.630Z,3.05
2023-01-01T04:19:41.063Z,3.22
2023-01-01T04:22:08.636Z,2.70
2023-01-01T04:24:36.035Z,3.30
2023-01-01T04:27:03.526Z,3.05
2023-01-01T04:29:30.909Z,2.88
2023-01-01T04:31:58.259Z,3.38
2023-01-01T04:34:25.767Z,3.22
2023-01-01T04:36:53.195Z,2.67
2023-01-01T04:39:20.520Z,2.85
2023-01-01T04:41:48.843Z,3.60
2023-01-01T04:44:16.194Z,2.78
2023-01-01T04:46:43.568Z,2.92
2023-01-01T04:49:11.091Z,3.50
2023-01-01T04:51:38.554Z,2.95
2023-01-01T04:54:05.952Z,3.10
2023-01-01T04:56:33.408Z,2.70
2023-01-01T04:59:00.942Z,3.47
2023-01-01T05:01:29.484Z,3.25
2023-01-01T05:03:57.391Z,3.45
2023-01-01T05:06:25.843Z,3.20
2023-01-01T05:08:57.093Z,3.17
2023-01-01T05:11:25.757Z,3.25
2023-01-01T05:13:54.203Z,3.05
2023-01-01T05:16:23.105Z,3.33
2023-01-01T05:18:50.832Z,3.55
2023-01-01T05:21:23.271Z,4.13
2023-01-01T05:23:54.123Z,3.38
2023-01-01T05:26:23.603Z,3.90
2023-01-01T05:28:51.513Z,3.67
2023-01-01T05:31:20.920Z,4.75
2023-01-01T05:33:48.463Z,4.03
2023-01-01T05:36:23.655Z,4.95
2023-01-01T05:41:22.640Z,3.70
2023-01-01T05:43:53.691Z,4.07
2023-01-01T05:46:22.597Z,3.92
2023-01-01T05:48:50.203Z,4.00
2023-01-01T05:51:19.768Z,3.63
2023-01-01T05:53:47.394Z,4.80
2023-01-01T05:56:15.959Z,3.92
2023-01-01T05:58:43.725Z,3.55
2023-01-01T06:01:18.549Z,3.83
2023-01-01T06:03:46.221Z,4.53
2023-01-01T06:06:15.211Z,4.40
2023-01-01T06:08:43.119Z,5.15
2023-01-01T06:11:13.000Z,4.40
2023-01-01T06:13:40.417Z,4.30
2023-01-01T06:16:08.041Z,4.35
2023-01-01T06:18:36.205Z,5.15
2023-01-01T06:21:17.210Z,3.97
2023-01-01T06:23:44.683Z,4.22
2023-01-01T06:26:13.408Z,4.90
2023-01-01T06:28:41.114Z,4.57
2023-01-01T06:31:09.614Z,4.35
2023-01-01T06:33:37.378Z,3.97
2023-01-01T06:36:05.949Z,3.95
2023-01-01T06:38:34.559Z,4.45
2023-01-01T06:41:03.743Z,4.05
2023-01-01T06:43:32.404Z,4.28
2023-01-01T06:46:02.911Z,4.43
2023-01-01T06:48:31.528Z,5.22
2023-01-01T06:50:59.249Z,4.25
2023-01-01T06:53:26.880Z,4.85
2023-01-01T06:55:57.464Z,4.15
2023-01-01T06:58:25.582Z,3.53
2023-01-01T07:00:52.905Z,3.75
2023-01-01T07:03:20.287Z,4.20
2023-01-01T07:05:47.672Z,3.83
2023-01-01T07:08:15.006Z,4.72
2023-01-01T07:10:42.364Z,4.03
2023-01-01T07:13:09.673Z,3.63
2023-01-01T07:15:37.829Z,3.80
2023-01-01T07:18:05.577Z,3.72
2023-01-01T07:20:32.941Z,3.67
2023-01-01T07:23:02.399Z,3.97
2023-01-01T07:25:29.726Z,3.13
2023-01-01T07:27:57.055Z,3.92
2023-01-01T07:30:24.404Z,3.53
2023-01-01T07:32:58.016Z,3.55
2023-01-01T07:35:25.378Z,3.42
2023-01-01T07:37:52.681Z,3.85
2023-01-01T07:40:20.078Z,3.58
2023-01-01T07:42:47.425Z,3.10
2023-01-01T07:45:14.763Z,3.50
2023-01-01T07:47:42.123Z,3.60
2023-01-01T07:50:16.106Z,2.90
2023-01-01T07:52:43.390Z,4.10
2023-01-01T07:55:14.930Z,3.13
2023-01-01T07:57:42.954Z,3.53
2023-01-01T08:00:11.431Z,3.65
2023-01-01T08:02:38.821Z,3.60
2023-01-01T08:05:06.513Z,2.83
2023-01-01T08:07:33.817Z,2.92
2023-01-01T08:10:01.299Z,3.63
2023-01-01T08:12:28.561Z,3.28
2023-01-01T08:14:56.011Z,3.25
2023-01-01T08:17:23.343Z,4.60
2023-01-01T08:19:52.185Z,2.72
2023-01-01T08:22:19.703Z,3.35
2023-01-01T08:24:47.041Z,3.28
2023-01-01T08:27:15.376Z,3.20
2023-01-01T08:29:43.332Z,3.80
2023-01-01T08:32:11.094Z,3.13
2023-01-01T08:34:38.461Z,3.03
2023-01-01T08:37:05.855Z,2.78
2023-01-01T08:39:33.277Z,2.67
2023-01-01T08:42:00.607Z,3.13
2023-01-01T08:44:27.933Z,3.40
2023-01-01T08:46:55.289Z,3.53
2023-01-01T08:49:22.769Z,3.15
2023-01-01T08:51:50.104Z,2.88
2023-01-01T08:54:17.514Z,3.03
2023-01-01T08:56:44.801Z,3.20
2023-01-01T08:59:12.155Z,2.90
2023-01-01T09:01:39.606Z,3.53
2023-01-01T09:04:15.181Z,3.03
2023-01-01T09:06:43.000Z,2.90
2023-01-01T09:09:10.349Z,3.63
2023-01-01T09:11:37.744Z,2.70
2023-01-01T09:14:05.126Z,2.55
2023-01-01T09:16:36.493Z,3.60
2023-01-01T09:19:07.302Z,3.03
2023-01-01T09:21:34.872Z,2.50
2023-01-01T09:24:02.398Z,3.20
2023-01-01T09:26:29.778Z,3.00
2023-01-01T09:28:57.128Z,2.50
2023-01-01T09:31:25.001Z,2.72
2023-01-01T09:33:52.517Z,2.70
2023-01-01T09:36:19.823Z,2.78
2023-01-01T09:38:54.019Z,2.70
2023-01-01T09:41:21.465Z,2.53
2023-01-01T09:43:56.256Z,3.42
2023-01-01T09:46:31.182Z,2.63
2023-01-01T09:49:20.912Z,2.47
2023-01-01T09:51:57.638Z,2.28
2023-01-01T09:54:35.264Z,2.63
2023-01-01T09:57:04.266Z,2.45
2023-01-01T09:59:32.849Z,2.38
2023-01-01T10:02:09.965Z,2.28
2023-01-01T10:04:37.289Z,2.67
2023-01-01T10:07:15.691Z,2.65
2023-01-01T10:10:00.368Z,2.72
2023-01-01T10:12:45.249Z,2.47
2023-01-01T10:15:15.388Z,2.70
2023-01-01T10:17:47.514Z,2.78
2023-01-01T10:20:27.005Z,3.22
2023-01-01T10:23:02.268Z,2.42
2023-01-01T10:25:32.261Z,2.50
2023-01-01T10:27:59.993Z,2.40
2023-01-01T10:30:28.380Z,2.10
2023-01-01T10:32:56.605Z,3.05
2023-01-01T10:35:36.170Z,2.92
2023-01-01T10:38:04.540Z,2.50
2023-01-01T10:40:32.577Z,3.13
2023-01-01T10:43:01.788Z,3.42
2023-01-01T10:45:32.671Z,3.05
2023-01-01T10:48:12.331Z,3.90
2023-01-01T10:51:00.309Z,2.90
2023-01-01T10:53:36.891Z,3.35
2023-01-01T10:56:14.462Z,2.95
2023-01-01T10:58:41.941Z,3.03
2023-01-01T11:01:18.570Z,3.28
2023-01-01T11:04:01.430Z,3.58
2023-01-01T11:06:36.179Z,3.10
2023-01-01T11:09:07.125Z,2.60
2023-01-01T11:11:37.517Z,2.08
2023-01-01T11:14:06.240Z,2.20
2023-01-01T11:16:34.174Z,2.63
2023-01-01T11:19:03.323Z,2.55
2023-01-01T11:21:30.891Z,2.90
2023-01-01T11:24:21.582Z,2.83
2023-01-01T11:26:54.549Z,3.25
2023-01-01T11:29:27.916Z,3.30
2023-01-01T11:31:56.376Z,2.92
2023-01-01T11:34:36.279Z,3.03
2023-01-01T11:37:15.656Z,3.13
2023-01-01T11:39:44.304Z,2.53
2023-01-01T11:42:17.224Z,3.20
2023-01-01T11:44:49.593Z,2.88
2023-01-01T11:47:24.961Z,3.13
2023-01-01T11:50:18.729Z,3.75
2023-01-01T11:52:47.173Z,3.35
2023-01-01T11:55:14.646Z,2.90
2023-01-01T11:57:45.581Z,2.83
2023-01-01T12:00:16.853Z,2.28
2023-01-01T12:02:49.032Z,2.97
2023-01-01T12:05:25.322Z,2.90
2023-01-01T12:07:53.093Z,2.97
2023-01-01T12:10:25.361Z,2.40
2023-01-01T12:13:01.683Z,2.30
2023-01-01T12:15:35.691Z,2.78
2023-01-01T12:18:06.259Z,2.72
2023-01-01T12:20:35.637Z,2.67
2023-01-01T12:23:03.594Z,2.17
2023-01-01T12:25:40.074Z,2.65
2023-01-01T12:28:24.209Z,2.35
2023-01-01T12:30:57.491Z,2.40
2023-01-01T12:33:43.588Z,2.20
2023-01-01T12:36:17.231Z,2.47
2023-01-01T12:38:44.632Z,2.63
2023-01-01T12:41:31.319Z,2.53
2023-01-01T12:44:01.816Z,2.40
2023-01-01T12:46:43.478Z,2.90
2023-01-01T12:49:20.047Z,2.60
2023-01-01T12:52:02.736Z,2.70
2023-01-01T12:54:30.125Z,2.10
2023-01-01T12:57:17.827Z,2.03
2023-01-01T12:59:48.397Z,3.20
2023-01-01T13:02:19.970Z,2.97
2023-01-01T13:04:49.064Z,2.80
2023-01-01T13:07:19.361Z,2.17
2023-01-01T13:09:53.703Z,1.80
2023-01-01T13:12:25.499Z,1.70
2023-01-01T13:14:56.012Z,2.15
2023-01-01T13:17:28.038Z,1.80
2023-01-01T13:20:07.618Z,2.25
2023-01-01T13:22:34.910Z,2.00
2023-01-01T13:25:11.445Z,2.42
2023-01-01T13:28:00.779Z,3.00
2023-01-01T13:30:37.529Z,2.28
2023-01-01T13:33:26.805Z,1.95
2023-01-01T13:36:12.307Z,2.22
2023-01-01T13:38:45.883Z,2.22
2023-01-01T13:41:28.672Z,2.10
2023-01-01T13:44:03.126Z,3.08
2023-01-01T13:46:43.686Z,2.03
2023-01-01T13:49:11.223Z,2.15
2023-01-01T13:52:08.041Z,2.00
2023-01-01T13:54:42.020Z,1.80
2023-01-01T13:57:09.357Z,1.60
2023-01-01T13:59:47.875Z,1.80
2023-01-01T14:02:18.744Z,2.45
2023-01-01T14:04:47.639Z,2.67
2023-01-01T14:07:52.395Z,2.20
2023-01-01T14:10:23.308Z,3.10
2023-01-01T14:12:51.366Z,2.47
2023-01-01T14:15:32.910Z,1.92
2023-01-01T14:18:01.801Z,2.25
2023-01-01T14:20:45.885Z,2.40
2023-01-01T14:23:17.186Z,2.88
2023-01-01T14:25:45.184Z,3.00
2023-01-01T14:28:20.788Z,3.30
2023-01-01T14:30:49.171Z,3.85
2023-01-01T14:33:24.501Z,2.80
2023-01-01T14:35:52.989Z,2.90
2023-01-01T14:38:27.524Z,3.47
2023-01-01T14:41:21.376Z,3.03
2023-01-01T14:43:50.210Z,2.97
2023-01-01T14:46:19.104Z,2.47
2023-01-01T14:48:51.944Z,2.13
2023-01-01T14:51:27.223Z,2.63
2023-01-01T14:53:56.547Z,2.88
2023-01-01T14:56:28.600Z,3.53
2023-01-01T14:58:59.912Z,2.65
2023-01-01T15:01:27.702Z,2.90
2023-01-01T15:04:02.526Z,3.20
2023-01-01T15:06:30.204Z,2.78
2023-01-01T15:08:58.048Z,3.00
2023-01-01T15:11:29.056Z,2.75
2023-01-01T15:13:58.467Z,2.50
2023-01-01T15:16:26.120Z,2.65
2023-01-01T15:18:57.303Z,2.38
2023-01-01T15:21:33.837Z,3.38
2023-01-01T15:24:11.281Z,2.50
2023-01-01T15:26:45.353Z,2.22
2023-01-01T15:29:17.295Z,2.33
2023-01-01T15:31:47.739Z,2.33
2023-01-01T15:34:24.171Z,2.20
2023-01-01T15:36:52.770Z,1.98
2023-01-01T15:39:20.229Z,2.63
2023-01-01T15:41:53.909Z,2.25
2023-01-01T15:44:21.505Z,1.90
2023-01-01T15:46:51.746Z,1.77
2023-01-01T15:49:29.862Z,2.03
2023-01-01T15:51:59.197Z,2.50
2023-01-01T15:54:27.371Z,2.30
2023-01-01T15:56:54.993Z,2.38
2023-01-01T15:59:35.853Z,2.20
2023-01-01T16:02:05.716Z,2.35
2023-01-01T16:04:33.342Z,2.70
2023-01-01T16:07:01.144Z,2.78
2023-01-01T16:09:28.512Z,1.80
2023-01-01T16:11:57.410Z,2.00
2023-01-01T16:14:24.985Z,2.10
2023-01-01T16:16:56.922Z,2.00
2023-01-01T16:19:25.124Z,1.90
2023-01-01T16:21:53.405Z,2.53
2023-01-01T16:24:21.104Z,2.10
2023-01-01T16:26:49.072Z,2.45
2023-01-01T16:29:16.841Z,1.58
2023-01-01T16:31:44.578Z,2.17
2023-01-01T16:34:15.434Z,1.98
2023-01-01T16:36:43.940Z,2.10
2023-01-01T16:39:11.682Z,2.88
2023-01-01T16:41:40.931Z,3.20
2023-01-01T16:44:08.353Z,4.35
2023-01-01T16:46:35.739Z,2.88
2023-01-01T16:49:04.644Z,3.92
2023-01-01T16:51:32.515Z,3.70
2023-01-01T16:54:01.188Z,2.67
2023-01-01T16:56:29.071Z,2.13
2023-01-01T16:59:02.584Z,2.28
2023-01-01T17:01:31.187Z,2.20
2023-01-01T17:03:59.075Z,2.63
2023-01-01T17:06:26.504Z,2.33
2023-01-01T17:08:54.220Z,2.88
2023-01-01T17:11:22.723Z,2.70
2023-01-01T17:13:50.089Z,2.38
2023-01-01T17:16:26.107Z,2.47
2023-01-01T17:19:15.554Z,2.30
2023-01-01T17:21:43.426Z,2.47
2023-01-01T17:24:11.285Z,2.53
2023-01-01T17:26:38.687Z,2.95
2023-01-01T17:29:07.747Z,3.63
2023-01-01T17:31:35.337Z,2.85
2023-01-01T17:34:02.955Z,3.75
2023-01-01T17:36:30.550Z,3.20
2023-01-01T17:38:58.027Z,3.58
2023-01-01T17:41:25.479Z,3.50
2023-01-01T17:43:52.930Z,3.17
2023-01-01T17:46:33.932Z,2.83
2023-01-01T17:49:02.072Z,3.22
2023-01-01T17:51:29.528Z,3.10
2023-01-01T17:53:57.440Z,3.20
2023-01-01T17:56:25.526Z,3.00
2023-01-01T17:58:54.056Z,3.92
2023-01-01T18:01:24.476Z,3.13
2023-01-01T18:03:53.049Z,4.18
2023-01-01T18:06:23.484Z,5.13
2023-01-01T18:08:55.098Z,4.60
2023-01-01T18:11:22.864Z,4.47
2023-01-01T18:13:53.092Z,5.55
2023-01-01T18:16:20.574Z,5.28
2023-01-01T18:18:48.168Z,2.50
2023-01-01T18:21:21.492Z,3.65
2023-01-01T18:23:51.857Z,2.90
2023-01-01T18:26:19.682Z,2.92
2023-01-01T18:28:51.406Z,2.75
2023-01-01T18:31:18.835Z,2.78
2023-01-01T18:33:49.394Z,2.50
2023-01-01T18:36:22.073Z,3.05
2023-01-01T18:39:00.152Z,2.67
2023-01-01T18:41:33.716Z,2.90
2023-01-01T18:44:01.195Z,2.67
2023-01-01T18:46:40.122Z,2.50
2023-01-01T18:49:09.885Z,2.55
2023-01-01T18:51:37.433Z,2.70
2023-01-01T18:54:11.497Z,2.47
2023-01-01T18:56:38.930Z,2.45
2023-01-01T18:59:17.256Z,3.08
2023-01-01T19:01:45.839Z,3.35
2023-01-01T19:04:13.835Z,3.00
2023-01-01T19:06:46.490Z,2.53
2023-01-01T19:09:25.414Z,3.05
2023-01-01T19:11:54.239Z,3.08
2023-01-01T19:14:25.950Z,3.20
2023-01-01T19:16:56.583Z,4.47
2023-01-01T19:19:29.068Z,4.47
2023-01-01T19:22:03.062Z,4.38
2023-01-01T19:24:32.452Z,4.38
2023-01-01T19:27:03.495Z,4.43
2023-01-01T19:29:31.254Z,5.13
2023-01-01T19:31:59.459Z,4.20
2023-01-01T19:34:26.981Z,4.45
2023-01-01T19:36:54.681Z,3.92
2023-01-01T19:39:22.016Z,3.78
2023-01-01T19:41:51.736Z,3.58
2023-01-01T19:44:24.741Z,3.10
2023-01-01T19:46:52.696Z,4.07
2023-01-01T19:49:20.145Z,3.00
2023-01-01T19:51:47.560Z,3.28
2023-01-01T19:54:27.513Z,2.83
2023-01-01T19:56:54.979Z,3.17
2023-01-01T19:59:29.233Z,2.88
2023-01-01T20:02:34.904Z,2.80
2023-01-01T20:04:47.743Z,2.97
2023-01-01T20:07:18.129Z,3.03
2023-01-01T20:09:45.575Z,2.78
2023-01-01T20:12:13.126Z,2.80
2023-01-01T20:14:40.598Z,2.70
2023-01-01T20:17:08.097Z,2.40
2023-01-01T20:19:36.145Z,2.85
2023-01-01T20:22:12.495Z,2.50
2023-01-01T20:24:41.590Z,2.53
2023-01-01T20:27:09.864Z,2.35
2023-01-01T20:29:37.183Z,2.78
2023-01-01T20:32:04.836Z,2.40
2023-01-01T20:34:32.366Z,2.60
2023-01-01T20:37:18.298Z,2.53
2023-01-01T20:39:45.656Z,2.30
2023-01-01T20:42:13.062Z,3.22
2023-01-01T20:44:42.957Z,2.97
2023-01-01T20:47:13.558Z,3.30
2023-01-01T20:49:44.132Z,2.55
2023-01-01T20:52:11.607Z,2.90
2023-01-01T20:54:39.036Z,2.50
2023-01-01T20:57:06.437Z,3.13
2023-01-01T20:59:36.841Z,2.70
2023-01-01T21:02:10.235Z,3.08
2023-01-01T21:04:39.254Z,3.00
2023-01-01T21:07:08.223Z,2.60
2023-01-01T21:09:35.687Z,2.60
2023-01-01T21:12:03.160Z,3.60
2023-01-01T21:14:30.601Z,4.13
2023-01-01T21:16:58.212Z,4.25
2023-01-01T21:19:27.200Z,5.53
2023-01-01T21:21:58.591Z,4.93
2023-01-01T21:24:27.647Z,6.00
2023-01-01T21:26:56.910Z,7.38
2023-01-01T21:29:25.371Z,5.80
2023-01-01T21:31:53.854Z,6.32
2023-01-01T21:34:25.922Z,5.65
2023-01-01T21:36:54.793Z,5.65
2023-01-01T21:39:28.092Z,5.55
2023-01-01T21:41:59.850Z,4.90
2023-01-01T21:44:27.182Z,6.00
2023-01-01T21:47:01.553Z,6.50
2023-01-01T21:49:36.970Z,6.93
2023-01-01T21:52:04.437Z,7.38
2023-01-01T21:54:31.851Z,8.40
2023-01-01T21:57:00.515Z,7.85
2023-01-01T21:59:38.600Z,8.20
2023-01-01T22:02:06.314Z,7.53
2023-01-01T22:04:38.801Z,7.30
2023-01-01T22:10:16.987Z,8.00
2023-01-01T22:12:44.470Z,7.43
2023-01-01T22:15:27.551Z,7.70
2023-01-01T22:18:03.869Z,8.15
2023-01-01T22:20:34.204Z,8.45
2023-01-01T22:23:05.325Z,7.10
2023-01-01T22:25:33.429Z,7.70
2023-01-01T22:28:15.186Z,7.40
2023-01-01T22:30:44.177Z,7.63
2023-01-01T22:33:16.591Z,7.22
2023-01-01T22:35:44.230Z,8.38
2023-01-01T22:38:16.277Z,8.52
2023-01-01T22:40:43.897Z,6.80
2023-01-01T22:43:11.370Z,6.40
2023-01-01T22:45:39.669Z,6.38
2023-01-01T22:48:08.167Z,6.15
2023-01-01T22:50:35.680Z,5.90
2023-01-01T22:53:03.104Z,5.50
2023-01-01T22:55:30.528Z,7.05
2023-01-01T22:57:57.945Z,6.80
2023-01-01T23:00:25.370Z,6.72
2023-01-01T23:02:52.770Z,5.22
2023-01-01T23:05:20.160Z,5.88
2023-01-01T23:07:47.859Z,5.47
2023-01-01T23:10:16.085Z,6.68
2023-01-01T23:12:43.450Z,5.90
2023-01-01T23:15:30.284Z,4.78
2023-01-01T23:17:57.643Z,6.57
2023-01-01T23:20:24.946Z,6.03
2023-01-01T23:22:55.503Z,6.07
2023-01-01T23:25:23.473Z,5.70
2023-01-01T23:27:52.349Z,4.60
2023-01-01T23:30:20.718Z,4.60
2023-01-01T23:32:48.293Z,4.22
2023-01-01T23:35:15.636Z,4.30
2023-01-01T23:37:43.002Z,3.92
2023-01-01T23:40:13.483Z,4.18
2023-01-01T23:42:40.886Z,4.93
2023-01-01T23:45:08.447Z,4.47
2023-01-01T23:47:36.016Z,4.25
2023-01-01T23:50:03.551Z,4.60
2023-01-01T23:52:30.980Z,5.47
2023-01-01T23:54:58.294Z,4.20
2023-01-01T23:57:26.016Z,3.85
2023-01-01T23:59:53.504Z,4.05
